Time;durP1;ratioP1;P1;durP2;ratioP2;P2;SDS_P1;SDS_P2;PMS_P1;PMS_P2;Temp;Humidity;BMP_temperature;BMP_pressure;BME280_temperature;BME280_humidity;BME280_pressure;Samples;Min_cycle;Max_cycle;Signal;HPM_P1;HPM_P2
2022/12/13 00:00:22;;;;;;;6.43;4.30;;;;;;;16.77;42.38;95673.44;10485598;28;20048;-29
2022/12/13 00:05:23;;;;;;;5.65;4.30;;;;;;;16.75;42.58;95660.81;10479100;28;20047;-28
2022/12/13 00:10:23;;;;;;;4.55;3.55;;;;;;;16.75;42.47;95654.94;10478401;28;20033;-29
2022/12/13 00:15:23;;;;;;;5.63;3.63;;;;;;;16.80;42.26;95658.25;10488033;28;20047;-29
2022/12/13 00:20:24;;;;;;;4.73;3.97;;;;;;;16.82;42.37;95651.50;10483517;28;20163;-28
2022/12/13 00:25:24;;;;;;;4.80;3.87;;;;;;;16.86;42.99;95643.88;10478089;28;20062;-29
2022/12/13 00:30:25;;;;;;;5.22;3.53;;;;;;;16.81;42.39;95634.66;10482221;28;20060;-29
2022/12/13 00:35:25;;;;;;;4.63;4.00;;;;;;;16.87;41.90;95644.69;10477829;28;20489;-29
2022/12/13 00:40:27;;;;;;;3.58;3.00;;;;;;;16.85;42.10;95646.41;10475418;28;20732;-29
2022/12/13 00:45:28;;;;;;;3.63;3.00;;;;;;;16.81;42.05;95640.53;10489737;28;20036;-29
2022/12/13 00:50:29;;;;;;;3.80;2.80;;;;;;;16.75;41.14;95637.25;10475035;28;20399;-29
2022/12/13 00:55:29;;;;;;;3.13;2.67;;;;;;;16.83;41.97;95643.06;10480994;28;20298;-29
2022/12/13 01:00:30;;;;;;;3.67;2.90;;;;;;;16.85;41.26;95632.09;10482136;28;20070;-29
2022/12/13 01:05:30;;;;;;;3.70;3.00;;;;;;;16.85;41.35;95621.97;10472752;28;20040;-29
2022/12/13 01:10:31;;;;;;;3.10;2.80;;;;;;;16.85;41.23;95621.13;10481667;28;20932;-27
2022/12/13 01:15:31;;;;;;;2.90;2.60;;;;;;;16.85;41.51;95611.88;10485072;28;20041;-29
2022/12/13 01:20:31;;;;;;;3.10;2.60;;;;;;;16.81;41.40;95616.97;10470138;28;20041;-29
2022/12/13 01:25:32;;;;;;;3.03;2.60;;;;;;;16.79;41.65;95608.53;10469864;28;20474;-30
2022/12/13 01:30:32;;;;;;;2.57;2.37;;;;;;;16.79;41.19;95600.97;10470025;28;20033;-29
2022/12/13 01:35:34;;;;;;;3.70;2.72;;;;;;;16.71;42.41;95604.44;10487696;28;20279;-29
2022/12/13 01:40:42;;;;;;;2.45;2.25;;;;;;;16.67;43.04;95598.59;10465686;28;20074;-29
2022/12/13 01:45:43;;;;;;;2.40;2.20;;;;;;;16.72;42.40;95596.84;10486100;28;20113;-29
2022/12/13 01:50:51;;;;;;;2.50;2.30;;;;;;;16.73;42.26;95594.28;10473440;28;20107;-29
2022/12/13 01:56:01;;;;;;;3.35;2.25;;;;;;;16.70;41.30;95601.06;10476072;28;20041;-29
2022/12/13 02:01:02;;;;;;;3.85;2.00;;;;;;;16.70;41.90;95598.53;10476872;28;20470;-29
2022/12/13 02:06:08;;;;;;;2.95;2.33;;;;;;;16.68;42.38;95607.84;10467505;28;20032;-30
2022/12/13 02:11:09;;;;;;;2.47;2.17;;;;;;;16.73;42.35;95605.25;10488794;28;20077;-29
2022/12/13 02:16:38;;;;;;;2.45;2.00;;;;;;;16.73;41.53;95606.13;10484584;28;20299;-28
2022/12/13 02:22:04;;;;;;;1.98;1.70;;;;;;;16.71;41.69;95592.63;10475233;28;20029;-29
2022/12/13 02:27:48;;;;;;;2.50;1.88;;;;;;;16.69;42.54;95584.25;10475363;28;20539;-29
2022/12/13 02:33:30;;;;;;;2.65;1.90;;;;;;;16.69;42.27;95583.41;10482725;28;20059;-29
2022/12/13 02:38:58;;;;;;;2.83;2.25;;;;;;;16.65;42.46;95572.50;10460550;28;20166;-29
2022/12/13 02:44:07;;;;;;;2.90;1.80;;;;;;;16.66;42.15;95568.28;10482248;28;20547;-29
2022/12/13 02:49:08;;;;;;;2.15;1.67;;;;;;;16.66;41.88;95565.75;10480638;28;20454;-29
2022/12/13 02:54:09;;;;;;;2.65;2.05;;;;;;;16.64;42.95;95568.31;10470660;28;20451;-28
2022/12/13 02:59:13;;;;;;;2.30;1.80;;;;;;;16.63;42.23;95564.09;10470152;28;20047;-28
2022/12/13 03:04:23;;;;;;;2.40;1.80;;;;;;;16.67;42.78;95559.84;10477188;28;20044;-28
2022/12/13 03:09:41;;;;;;;2.55;1.63;;;;;;;16.62;42.66;95556.53;10465582;28;20029;-28
2022/12/13 03:15:11;;;;;;;3.63;1.83;;;;;;;16.65;42.09;95542.19;10480181;28;20040;-29
2022/12/13 03:20:16;;;;;;;2.55;2.05;;;;;;;16.64;42.64;95537.13;10461830;28;20520;-29
2022/12/13 03:25:17;;;;;;;2.00;1.63;;;;;;;16.67;42.16;95535.41;10483303;28;20389;-29
2022/12/13 03:30:18;;;;;;;2.17;1.85;;;;;;;16.66;41.82;95528.69;10484587;28;20029;-29
2022/12/13 03:35:19;;;;;;;2.15;1.95;;;;;;;16.70;41.93;95530.31;10490522;28;20044;-29
2022/12/13 03:40:20;;;;;;;2.10;1.88;;;;;;;16.70;42.02;95525.25;10487437;28;20037;-29
2022/12/13 03:45:21;;;;;;;2.47;1.70;;;;;;;16.73;42.19;95530.31;10481930;28;20043;-29
2022/12/13 03:50:21;;;;;;;1.80;1.65;;;;;;;16.71;41.63;95526.09;10483990;28;20044;-29
2022/12/13 03:55:22;;;;;;;2.50;1.83;;;;;;;16.71;41.18;95526.94;10480906;28;20043;-28
2022/12/13 04:00:22;;;;;;;3.20;1.30;;;;;;;16.73;41.21;95524.41;10483307;28;20040;-28
2022/12/13 04:05:23;;;;;;;2.67;1.90;;;;;;;16.74;41.56;95532.78;10490187;28;20044;-30
2022/12/13 04:10:24;;;;;;;1.73;1.38;;;;;;;16.70;41.67;95530.31;10483607;28;20035;-29
2022/12/13 04:15:24;;;;;;;2.10;1.77;;;;;;;16.64;41.84;95520.31;10493262;28;20036;-28
2022/12/13 04:20:25;;;;;;;1.73;1.43;;;;;;;16.68;41.76;95524.44;10478861;28;20515;-28
2022/12/13 04:25:25;;;;;;;4.85;1.65;;;;;;;16.68;41.41;95526.97;10475205;28;20291;-30
2022/12/13 04:30:25;;;;;;;1.60;1.40;;;;;;;16.65;41.82;95521.97;10481010;28;20032;-30
2022/12/13 04:35:26;;;;;;;1.80;1.27;;;;;;;16.64;41.58;95524.50;10488475;28;20036;-29
2022/12/13 04:40:27;;;;;;;2.38;1.42;;;;;;;16.62;41.26;95532.09;10479156;28;20036;-29
2022/12/13 04:45:27;;;;;;;2.13;1.90;;;;;;;16.58;41.64;95525.41;10478473;28;20036;-29
2022/12/13 04:50:28;;;;;;;2.63;1.30;;;;;;;16.57;41.48;95522.91;10471461;28;20040;-29
2022/12/13 04:55:28;;;;;;;3.65;1.73;;;;;;;16.58;41.42;95515.31;10477356;28;20669;-29
2022/12/13 05:00:29;;;;;;;2.53;1.60;;;;;;;16.60;40.92;95508.53;10482758;28;20036;-29
2022/12/13 05:05:29;;;;;;;2.10;1.90;;;;;;;16.65;41.01;95511.88;10476353;28;20043;-29
2022/12/13 05:10:29;;;;;;;3.37;1.77;;;;;;;16.68;40.82;95511.81;10473774;28;20035;-29
2022/12/13 05:15:30;;;;;;;4.63;3.77;;;;;;;16.73;40.42;95515.94;10484623;28;20033;-28
2022/12/13 05:20:30;;;;;;;8.23;5.40;;;;;;;16.72;40.49;95498.31;10480635;28;20029;-28
2022/12/13 05:25:32;;;;;;;9.80;6.47;;;;;;;16.76;40.80;95494.88;10480361;28;20037;-28
2022/12/13 05:30:32;;;;;;;7.75;5.95;;;;;;;16.73;40.55;95489.00;10492624;28;20028;-29
2022/12/13 05:35:33;;;;;;;9.65;6.72;;;;;;;16.72;40.57;95488.19;10490689;28;20032;-29
2022/12/13 05:40:34;;;;;;;9.43;7.40;;;;;;;16.72;40.99;95483.16;10476864;28;20028;-29
2022/12/13 05:45:34;;;;;;;10.40;8.23;;;;;;;16.74;39.32;95483.94;10485367;28;20150;-28
2022/12/13 05:50:37;;;;;;;12.23;7.43;;;;;;;16.77;39.05;95472.13;10491304;28;20081;-28
2022/12/13 05:55:37;;;;;;;9.52;7.68;;;;;;;16.86;38.46;95478.72;10488404;28;20294;-29
2022/12/13 06:00:38;;;;;;;10.98;8.02;;;;;;;16.85;38.87;95497.28;10497663;28;20065;-29
2022/12/13 06:05:41;;;;;;;14.80;8.18;;;;;;;16.91;37.98;95494.69;10490791;28;20137;-28
2022/12/13 06:10:41;;;;;;;11.18;8.38;;;;;;;16.90;39.28;95490.47;10488055;28;20070;-28
2022/12/13 06:15:41;;;;;;;10.20;7.50;;;;;;;16.94;38.76;95504.72;10490882;28;20120;-29
2022/12/13 06:20:42;;;;;;;9.37;7.40;;;;;;;16.95;39.64;95503.88;10473568;28;20044;-28
2022/12/13 06:25:42;;;;;;;9.73;6.97;;;;;;;16.96;38.75;95500.47;10475302;28;20081;-29
2022/12/13 06:30:42;;;;;;;16.93;8.07;;;;;;;17.01;40.35;95498.75;10490829;28;20025;-28
2022/12/13 06:35:43;;;;;;;12.77;9.83;;;;;;;17.04;40.19;95501.22;10497848;28;20283;-29
2022/12/13 06:40:43;;;;;;;17.02;10.25;;;;;;;16.61;37.67;95505.16;10488027;28;20299;-29
2022/12/13 06:45:44;;;;;;;14.60;11.00;;;;;;;16.82;38.59;95502.38;10475447;28;20036;-30
2022/12/13 06:50:44;;;;;;;12.83;9.53;;;;;;;16.87;38.08;95500.59;10496013;28;20435;-29
2022/12/13 06:55:45;;;;;;;14.17;9.63;;;;;;;16.85;37.78;95504.84;10486264;28;20051;-29
2022/12/13 07:00:46;;;;;;;13.80;9.75;;;;;;;16.83;37.67;95496.47;10514043;28;20927;-29
2022/12/13 07:05:46;;;;;;;16.13;9.93;;;;;;;16.85;38.40;95503.19;10494237;28;20040;-29
2022/12/13 07:10:46;;;;;;;12.60;8.77;;;;;;;16.83;38.53;95499.00;10475900;28;20298;-29
2022/12/13 07:15:47;;;;;;;15.10;9.13;;;;;;;16.85;38.39;95504.84;10513816;28;20549;-29
2022/12/13 07:20:47;;;;;;;12.07;9.30;;;;;;;16.86;38.96;95519.16;10486488;28;20352;-29
2022/12/13 07:25:52;;;;;;;14.57;8.03;;;;;;;16.86;37.96;95517.50;10488061;28;20051;-29
2022/12/13 07:30:53;;;;;;;14.32;9.95;;;;;;;16.80;38.47;95512.50;10485005;28;20064;-29
2022/12/13 07:36:06;;;;;;;14.75;8.00;;;;;;;16.85;38.07;95525.06;10489439;28;20190;-31
2022/12/13 07:41:06;;;;;;;12.40;8.35;;;;;;;16.82;38.19;95530.19;10488548;28;20082;-29
2022/12/13 07:46:08;;;;;;;12.32;8.77;;;;;;;16.82;37.70;95535.25;10485496;28;20082;-28
2022/12/13 07:51:10;;;;;;;11.23;8.05;;;;;;;16.81;36.74;95543.69;10488604;28;20110;-28
2022/12/13 07:56:11;;;;;;;11.45;8.80;;;;;;;16.88;37.52;95545.25;10476412;28;20715;-29
2022/12/13 08:01:11;;;;;;;10.25;7.97;;;;;;;16.92;36.93;95531.72;10490885;28;20104;-28
2022/12/13 08:06:12;;;;;;;10.27;7.88;;;;;;;16.85;38.09;95546.16;10482303;28;20032;-29
2022/12/13 08:11:16;;;;;;;9.25;8.00;;;;;;;16.83;37.94;95567.25;10482476;28;20028;-29
2022/12/13 08:16:17;;;;;;;10.60;7.57;;;;;;;16.82;37.96;95561.34;10504271;28;20037;-29
2022/12/13 08:21:17;;;;;;;10.18;7.65;;;;;;;16.83;38.90;95557.13;10483875;28;20033;-29
2022/12/13 08:26:17;;;;;;;9.23;6.80;;;;;;;16.82;39.32;95563.84;10482846;28;20039;-29
2022/12/13 08:31:19;;;;;;;8.88;7.30;;;;;;;16.80;39.27;95560.53;10480307;28;20737;-29
2022/12/13 08:36:22;;;;;;;8.93;6.93;;;;;;;16.80;39.49;95563.03;10470432;28;20043;-28
2022/12/13 08:41:23;;;;;;;10.25;6.88;;;;;;;16.80;39.44;95557.13;10485365;28;20843;-29
2022/12/13 08:46:24;;;;;;;9.35;6.45;;;;;;;16.77;40.53;95547.09;10485772;28;20094;-29
2022/12/13 08:51:24;;;;;;;7.63;6.43;;;;;;;16.78;40.23;95558.84;10483668;28;20045;-29
2022/12/13 08:56:25;;;;;;;9.10;7.03;;;;;;;16.75;40.43;95558.91;10473158;28;20954;-29
2022/12/13 09:01:25;;;;;;;7.05;5.72;;;;;;;16.76;40.35;95550.47;10474631;28;20291;-29
2022/12/13 09:06:25;;;;;;;8.90;6.53;;;;;;;16.75;40.66;95544.56;10479013;28;20032;-29
2022/12/13 09:11:26;;;;;;;8.93;6.80;;;;;;;16.78;41.51;95548.75;10474288;28;20407;-29
2022/12/13 09:16:26;;;;;;;8.83;7.00;;;;;;;16.82;41.11;95555.47;10482424;28;20455;-29
2022/12/13 09:21:26;;;;;;;6.73;5.83;;;;;;;16.71;41.82;95537.03;10482609;28;20332;-29
2022/12/13 09:26:27;;;;;;;8.60;6.60;;;;;;;16.74;41.43;95553.00;10481893;28;20028;-29
2022/12/13 09:31:27;;;;;;;8.73;6.70;;;;;;;16.74;41.34;95558.06;10475867;28;20028;-29
2022/12/13 09:36:28;;;;;;;9.40;6.17;;;;;;;16.77;40.95;95549.59;10486731;28;20733;-28
2022/12/13 09:41:44;;;;;;;7.85;6.72;;;;;;;16.78;41.51;95548.75;10485379;28;20436;-29
2022/12/13 09:46:46;;;;;;;7.35;6.10;;;;;;;16.82;40.94;95547.88;10473196;28;20025;-29
2022/12/13 09:51:52;;;;;;;8.18;6.22;;;;;;;16.88;41.26;95550.31;10479205;28;20115;-28
2022/12/13 09:56:54;;;;;;;7.00;5.33;;;;;;;16.90;40.89;95548.63;10469936;28;20047;-29
2022/12/13 10:01:56;;;;;;;7.15;6.20;;;;;;;16.89;41.61;95529.25;10498854;28;20025;-29
2022/12/13 10:06:58;;;;;;;7.38;6.40;;;;;;;16.86;40.97;95524.22;10485518;28;20721;-29
2022/12/13 10:11:58;;;;;;;9.88;6.30;;;;;;;16.86;41.60;95516.63;10468112;28;20032;-28
2022/12/13 10:17:03;;;;;;;8.63;6.13;;;;;;;16.82;41.77;95515.84;10482047;28;20029;-29
2022/12/13 10:22:08;;;;;;;6.80;5.78;;;;;;;16.79;41.56;95525.16;10477794;28;20477;-29
2022/12/13 10:27:14;;;;;;;8.38;6.35;;;;;;;16.82;42.00;95510.78;10478068;28;20039;-28
2022/12/13 10:32:18;;;;;;;7.63;6.25;;;;;;;16.83;41.77;95524.28;10471515;28;20087;-28
2022/12/13 10:37:28;;;;;;;6.50;5.63;;;;;;;16.82;42.42;95515.84;10473350;28;20102;-29
2022/12/13 10:42:29;;;;;;;7.15;5.72;;;;;;;16.75;42.30;95508.38;10482742;28;20035;-29
2022/12/13 10:47:30;;;;;;;7.03;5.43;;;;;;;16.74;42.10;95517.63;10474010;28;20031;-29
2022/12/13 10:52:36;;;;;;;7.20;5.63;;;;;;;16.73;42.38;95512.59;10477839;28;20059;-29
2022/12/13 10:57:37;;;;;;;7.05;5.65;;;;;;;16.72;42.31;95523.56;10469325;28;20044;-29
2022/12/13 11:02:38;;;;;;;7.10;5.40;;;;;;;16.66;42.50;95511.00;10475071;28;20029;-29
2022/12/13 11:07:38;;;;;;;6.07;5.20;;;;;;;16.69;42.55;95523.59;10478409;28;20021;-29
2022/12/13 11:12:39;;;;;;;6.00;5.07;;;;;;;16.46;42.12;95480.06;10471906;28;20037;-29
2022/12/13 11:17:48;;;;;;;5.97;5.13;;;;;;;16.72;41.93;95513.47;10468582;28;20377;-29
2022/12/13 11:23:06;;;;;;;7.18;5.55;;;;;;;16.65;40.86;95504.28;10484774;28;20590;-29
2022/12/13 11:28:38;;;;;;;7.60;5.43;;;;;;;16.74;41.54;95496.59;10484415;28;20040;-29
2022/12/13 11:33:50;;;;;;;10.70;5.65;;;;;;;16.79;41.56;95495.66;10457744;28;20033;-29
2022/12/13 11:38:56;;;;;;;6.15;4.70;;;;;;;16.85;41.30;95494.75;10475466;28;20123;-29
2022/12/13 11:44:04;;;;;;;8.70;7.10;;;;;;;16.67;40.03;95495.00;10474176;28;20040;-29
2022/12/13 11:49:16;;;;;;;11.10;6.63;;;;;;;16.78;40.81;95503.25;10475849;28;20282;-29
2022/12/13 11:54:24;;;;;;;7.88;5.72;;;;;;;16.84;41.55;95498.13;10481642;28;20043;-29
2022/12/13 11:59:38;;;;;;;8.32;5.35;;;;;;;16.93;41.72;95503.06;10484850;28;20093;-29
2022/12/13 12:04:47;;;;;;;6.13;4.72;;;;;;;16.98;41.82;95496.28;10471096;28;20036;-29
2022/12/13 12:09:57;;;;;;;8.55;5.05;;;;;;;16.99;41.86;95496.22;10476517;28;20043;-29
2022/12/13 12:15:37;;;;;;;8.48;5.22;;;;;;;17.01;42.13;95492.00;10490760;28;20039;-29
2022/12/13 12:20:59;;;;;;;5.57;4.90;;;;;;;17.02;42.09;95481.03;10449361;28;20680;-29
2022/12/13 12:26:12;;;;;;;8.88;4.63;;;;;;;17.01;42.05;95481.03;10477854;28;20389;-29
2022/12/13 12:31:25;;;;;;;9.15;5.13;;;;;;;17.04;42.75;95474.25;10479082;28;20033;-29
2022/12/13 12:37:03;;;;;;;5.85;4.57;;;;;;;17.04;43.65;95479.31;10485515;28;20129;-29
2022/12/13 12:42:17;;;;;;;6.78;5.90;;;;;;;17.01;44.47;95481.91;10478695;28;20062;-29
2022/12/13 12:47:53;;;;;;;7.10;4.15;;;;;;;17.02;44.72;95482.72;10475778;28;20167;-30
2022/12/13 12:53:24;;;;;;;6.88;4.40;;;;;;;17.07;44.70;95488.56;10475250;28;20048;-29
2022/12/13 12:58:45;;;;;;;7.35;4.80;;;;;;;17.09;44.90;95485.13;10477178;28;20166;-29
2022/12/13 13:03:47;;;;;;;7.40;4.78;;;;;;;17.04;44.67;95481.84;10486850;28;20032;-29
2022/12/13 13:08:51;;;;;;;12.63;10.02;;;;;;;16.79;42.19;95489.75;10474592;28;20044;-29
2022/12/13 13:13:57;;;;;;;11.73;7.70;;;;;;;16.94;43.11;95479.47;10474877;28;20075;-29
2022/12/13 13:19:10;;;;;;;10.95;5.93;;;;;;;16.98;42.78;95481.91;10480010;28;20068;-29
2022/12/13 13:24:14;;;;;;;10.07;5.78;;;;;;;16.95;42.93;95476.06;10479310;28;20116;-29
2022/12/13 13:29:27;;;;;;;10.80;5.80;;;;;;;17.00;42.78;95479.38;10484357;28;20033;-28
2022/12/13 13:34:30;;;;;;;9.27;5.78;;;;;;;17.01;42.86;95496.22;10478630;28;20545;-29
2022/12/13 13:39:31;;;;;;;9.63;5.07;;;;;;;17.00;43.00;95474.31;10485469;28;20451;-29
2022/12/13 13:44:53;;;;;;;6.53;5.00;;;;;;;16.98;43.10;95468.47;10467551;28;20119;-29
2022/12/13 13:50:06;;;;;;;10.35;5.10;;;;;;;17.03;42.92;95447.31;10484845;28;20082;-29
2022/12/13 13:55:28;;;;;;;5.97;5.30;;;;;;;17.03;42.67;95443.94;10471587;28;20709;-29
2022/12/13 14:00:50;;;;;;;7.60;4.40;;;;;;;17.01;42.79;95445.66;10480641;28;20389;-29
2022/12/13 14:06:12;;;;;;;4.78;4.28;;;;;;;17.01;42.84;95453.25;10472314;28;21000;-29
2022/12/13 14:11:39;;;;;;;6.65;4.45;;;;;;;16.99;43.22;95437.25;10473067;28;20111;-29
2022/12/13 14:17:16;;;;;;;4.80;4.30;;;;;;;17.01;43.30;95450.72;10483545;28;20035;-29
2022/12/13 14:22:43;;;;;;;11.02;4.30;;;;;;;17.06;42.50;95464.13;10479641;28;20467;-29
2022/12/13 14:28:03;;;;;;;4.82;3.95;;;;;;;17.05;42.30;95452.31;10481353;28;20036;-29
2022/12/13 14:33:04;;;;;;;5.32;4.35;;;;;;;17.00;42.49;95469.28;10474994;28;20417;-28
2022/12/13 14:38:19;;;;;;;6.00;4.10;;;;;;;17.02;42.55;95482.72;10478164;28;20036;-29
2022/12/13 14:43:23;;;;;;;7.13;4.47;;;;;;;16.99;42.57;95483.59;10474764;28;20564;-29
2022/12/13 14:48:24;;;;;;;5.15;3.85;;;;;;;17.01;42.37;95483.56;10468861;28;20033;-30
2022/12/13 14:53:28;;;;;;;4.93;4.05;;;;;;;16.98;42.23;95479.38;10481793;28;20484;-30
2022/12/13 14:58:28;;;;;;;5.05;4.05;;;;;;;16.97;42.50;95475.19;10474206;28;20481;-29
2022/12/13 15:03:29;;;;;;;4.77;4.00;;;;;;;17.00;42.29;95469.28;10484916;28;20036;-29
2022/12/13 15:08:32;;;;;;;4.78;3.88;;;;;;;17.01;42.62;95469.25;10473200;28;20667;-29
2022/12/13 15:13:40;;;;;;;4.03;3.60;;;;;;;17.01;42.36;95470.94;10477197;28;20396;-28
2022/12/13 15:18:40;;;;;;;4.75;3.92;;;;;;;16.93;42.30;95462.63;10483686;28;20389;-29
2022/12/13 15:23:45;;;;;;;4.72;3.88;;;;;;;16.99;42.69;95467.59;10475908;28;20044;-29
2022/12/13 15:28:53;;;;;;;4.75;4.25;;;;;;;16.98;42.66;95471.81;10489900;28;20554;-29
2022/12/13 15:33:54;;;;;;;4.47;3.97;;;;;;;17.03;42.63;95479.31;10479939;28;20063;-29
2022/12/13 15:38:54;;;;;;;4.88;3.72;;;;;;;16.98;42.39;95445.72;10483295;28;20518;-29
2022/12/13 15:44:01;;;;;;;5.20;4.13;;;;;;;17.06;42.03;95474.25;10479378;28;20048;-29
2022/12/13 15:49:02;;;;;;;4.07;3.47;;;;;;;17.06;42.43;95479.31;10488063;28;20522;-28
2022/12/13 15:54:09;;;;;;;5.05;3.75;;;;;;;17.06;42.37;95474.25;10478031;28;20424;-29
2022/12/13 15:59:34;;;;;;;4.45;4.05;;;;;;;17.08;42.17;95462.41;10484430;28;20085;-29
2022/12/13 16:04:34;;;;;;;3.63;3.22;;;;;;;17.08;42.15;95444.72;10468210;28;20138;-29
2022/12/13 16:09:37;;;;;;;3.77;3.43;;;;;;;17.09;42.27;95428.69;10473177;28;20031;-29
2022/12/13 16:14:41;;;;;;;4.72;3.78;;;;;;;17.06;42.13;95408.50;10492047;28;20774;-29
2022/12/13 16:19:42;;;;;;;4.10;3.70;;;;;;;17.07;42.16;95392.47;10476666;28;20032;-29
2022/12/13 16:24:43;;;;;;;4.07;3.60;;;;;;;17.07;42.08;95380.66;10484823;28;20034;-29
2022/12/13 16:29:43;;;;;;;4.20;3.80;;;;;;;17.07;42.12;95370.53;10488293;28;20051;-29
2022/12/13 16:34:44;;;;;;;4.32;3.60;;;;;;;17.06;42.02;95357.94;10481917;28;20028;-29
2022/12/13 16:39:45;;;;;;;3.90;3.50;;;;;;;17.04;41.90;95374.81;10483899;28;20040;-29
2022/12/13 16:44:46;;;;;;;5.03;4.53;;;;;;;17.08;41.36;95363.81;10482244;28;20044;-31
2022/12/13 16:49:48;;;;;;;4.10;3.75;;;;;;;17.04;40.93;95380.72;10483577;28;20025;-30
2022/12/13 16:54:50;;;;;;;5.25;4.45;;;;;;;17.05;40.80;95379.00;10474034;28;20029;-29
2022/12/13 16:59:50;;;;;;;4.63;3.97;;;;;;;16.94;40.37;95373.28;10483085;28;20044;-30
2022/12/13 17:04:51;;;;;;;4.83;4.33;;;;;;;17.03;40.37;95394.22;10484455;28;20515;-28
2022/12/13 17:09:51;;;;;;;5.43;4.63;;;;;;;17.04;40.07;95392.50;10476851;28;20381;-29
2022/12/13 17:14:51;;;;;;;5.20;4.67;;;;;;;17.03;40.15;95395.91;10488330;28;20028;-29
2022/12/13 17:19:52;;;;;;;4.93;4.30;;;;;;;17.04;39.87;95402.63;10478689;28;20120;-29
2022/12/13 17:24:53;;;;;;;5.30;4.80;;;;;;;17.04;39.18;95405.16;10470733;28;20308;-28
2022/12/13 17:29:53;;;;;;;7.60;5.00;;;;;;;17.03;39.09;95409.38;10483723;28;20032;-29
2022/12/13 17:34:54;;;;;;;5.90;4.73;;;;;;;16.98;39.15;95406.06;10482088;28;20028;-29
2022/12/13 17:39:55;;;;;;;6.30;4.78;;;;;;;16.96;38.82;95397.69;10483466;28;20321;-29
2022/12/13 17:44:55;;;;;;;5.20;4.67;;;;;;;16.97;39.10;95395.97;10477892;28;20085;-29
2022/12/13 17:49:55;;;;;;;7.33;5.10;;;;;;;17.01;38.84;95410.25;10473539;28;20020;-29
2022/12/13 17:54:56;;;;;;;6.93;4.97;;;;;;;16.99;38.56;95411.97;10479544;28;20580;-28
2022/12/13 17:59:56;;;;;;;5.80;5.22;;;;;;;17.00;38.33;95403.53;10481109;28;20059;-29
2022/12/13 18:04:57;;;;;;;6.43;5.30;;;;;;;17.04;38.62;95405.16;10470501;28;20676;-29
2022/12/13 18:09:57;;;;;;;5.60;5.10;;;;;;;17.06;38.04;95404.28;10479399;28;20432;-29
2022/12/13 18:14:58;;;;;;;6.10;5.07;;;;;;;17.01;38.29;95377.38;10487097;28;20466;-28
2022/12/13 18:19:59;;;;;;;6.90;5.45;;;;;;;16.94;38.29;95373.28;10468973;28;20413;-28
2022/12/13 18:25:00;;;;;;;6.43;5.68;;;;;;;16.98;38.02;95383.31;10481087;28;20064;-29
2022/12/13 18:30:00;;;;;;;5.57;5.07;;;;;;;16.98;38.05;95383.31;10480162;28;20112;-29
2022/12/13 18:35:00;;;;;;;8.77;6.67;;;;;;;16.78;37.60;95379.44;10471001;28;20029;-29
2022/12/13 18:40:02;;;;;;;7.47;6.37;;;;;;;16.90;37.74;95371.69;10478632;28;20104;-29
2022/12/13 18:45:03;;;;;;;6.90;5.82;;;;;;;16.91;37.76;95350.59;10473374;28;20020;-29
2022/12/13 18:50:06;;;;;;;10.48;5.22;;;;;;;16.94;38.24;95348.00;10478767;28;20028;-28
2022/12/13 18:55:07;;;;;;;7.22;5.38;;;;;;;16.97;38.34;95346.25;10473287;28;20540;-30
2022/12/13 19:00:08;;;;;;;5.80;4.95;;;;;;;16.95;39.57;95344.63;10487326;28;20028;-32
2022/12/13 19:05:09;;;;;;;6.10;5.38;;;;;;;17.00;39.52;95327.69;10491143;28;20024;-29
2022/12/13 19:10:09;;;;;;;5.78;5.18;;;;;;;17.04;39.33;95324.25;10469498;28;20036;-29
2022/12/13 19:15:11;;;;;;;5.47;4.28;;;;;;;16.96;39.80;95303.31;10475493;28;20626;-29
2022/12/13 19:20:12;;;;;;;5.50;4.82;;;;;;;17.06;39.88;95289.69;10478117;28;20678;-29
2022/12/13 19:25:12;;;;;;;5.32;4.55;;;;;;;17.04;40.07;95283.78;10480843;28;20028;-29
2022/12/13 19:30:13;;;;;;;4.90;4.37;;;;;;;17.05;40.24;95260.16;10479599;28;20032;-29
2022/12/13 19:35:13;;;;;;;5.20;4.57;;;;;;;17.03;40.64;95261.91;10487280;28;20437;-29
2022/12/13 19:40:14;;;;;;;5.05;4.30;;;;;;;17.00;40.72;95249.31;10487691;28;20028;-29
2022/12/13 19:45:14;;;;;;;5.30;4.33;;;;;;;16.98;41.07;95234.19;10482567;28;20086;-29
2022/12/13 19:50:15;;;;;;;12.40;7.60;;;;;;;16.54;39.60;95219.81;10480037;28;20286;-29
2022/12/13 19:55:15;;;;;;;14.43;9.38;;;;;;;16.46;37.56;95214.84;10481472;28;20784;-29
2022/12/13 20:00:16;;;;;;;12.80;8.95;;;;;;;16.67;37.54;95212.00;10478536;28;20038;-29
2022/12/13 20:05:16;;;;;;;15.48;7.47;;;;;;;16.79;38.84;95212.63;10504643;28;20032;-29
2022/12/13 20:10:17;;;;;;;13.88;7.75;;;;;;;16.85;39.87;95216.72;10483393;28;20039;-28
2022/12/13 20:15:18;;;;;;;13.25;7.47;;;;;;;16.89;39.89;95228.47;10486739;28;20031;-28
2022/12/13 20:20:19;;;;;;;14.70;6.20;;;;;;;16.96;39.62;95246.00;10493800;28;20117;-28
2022/12/13 20:25:19;;;;;;;11.57;7.00;;;;;;;17.04;40.12;95263.56;10487428;28;20295;-28
2022/12/13 20:30:20;;;;;;;11.10;5.87;;;;;;;17.05;40.34;95260.16;10478096;28;20031;-29
2022/12/13 20:35:21;;;;;;;9.68;6.22;;;;;;;17.01;40.23;95268.69;10481655;28;20036;-31
2022/12/13 20:40:21;;;;;;;10.70;5.77;;;;;;;16.78;40.56;95236.22;10481217;28;20047;-30
2022/12/13 20:45:22;;;;;;;12.05;6.25;;;;;;;16.97;40.44;95264.53;10476990;28;20830;-29
2022/12/13 20:50:22;;;;;;;6.70;5.13;;;;;;;16.89;40.39;95252.03;10473893;28;20034;-29
2022/12/13 20:55:22;;;;;;;15.60;5.90;;;;;;;16.84;40.06;95240.34;10473740;28;20557;-29
2022/12/13 21:00:23;;;;;;;12.20;6.22;;;;;;;16.97;40.61;95264.53;10507691;28;20032;-28
2022/12/13 21:05:24;;;;;;;8.98;6.32;;;;;;;16.83;40.52;95243.72;10481997;28;20039;-29
2022/12/13 21:10:24;;;;;;;11.33;6.73;;;;;;;16.94;40.15;95267.97;10454769;28;20531;-29
2022/12/13 21:15:24;;;;;;;10.03;7.00;;;;;;;16.93;40.33;95270.50;10472895;28;20114;-29
2022/12/13 21:20:25;;;;;;;11.30;6.97;;;;;;;16.90;39.90;95260.47;10478660;28;20515;-29
2022/12/13 21:25:25;;;;;;;11.90;7.28;;;;;;;16.90;40.53;95265.53;10474574;28;20038;-29
2022/12/13 21:30:25;;;;;;;13.10;8.40;;;;;;;16.86;40.48;95259.69;10472535;28;20029;-31
2022/12/13 21:35:26;;;;;;;13.90;8.80;;;;;;;16.91;40.69;95246.97;10467016;28;20036;-29
2022/12/13 21:40:28;;;;;;;14.15;8.35;;;;;;;16.95;40.73;95240.97;10458191;28;20086;-29
2022/12/13 21:45:28;;;;;;;13.75;8.90;;;;;;;16.95;41.07;95238.44;10469117;28;20541;-29
2022/12/13 21:50:29;;;;;;;11.07;8.27;;;;;;;16.92;41.08;95223.34;10474640;28;20121;-29
2022/12/13 21:55:29;;;;;;;13.37;8.07;;;;;;;16.90;40.95;95212.44;10462665;28;20039;-29
2022/12/13 22:00:32;;;;;;;14.93;9.05;;;;;;;16.94;40.89;95192.13;10433823;28;20090;-29
2022/12/13 22:05:33;;;;;;;18.25;9.20;;;;;;;16.94;41.57;95171.06;10474516;28;20028;-28
2022/12/13 22:11:11;;;;;;;13.55;9.77;;;;;;;16.92;42.00;95168.56;10498945;28;20020;-29
2022/12/13 22:15:54;;;;;;;16.50;9.13;;;;;;;16.87;42.19;95160.25;10491263;28;20033;-29
2022/12/13 22:20:57;;;;;;;15.17;8.30;;;;;;;16.82;41.79;95156.13;10473596;28;20028;-29
2022/12/13 22:25:58;;;;;;;13.52;8.98;;;;;;;16.86;41.46;95150.16;10480395;28;20040;-28
2022/12/13 22:30:58;;;;;;;12.37;8.30;;;;;;;16.88;43.04;95154.31;10478302;28;20098;-29
2022/12/13 22:35:59;;;;;;;13.45;7.95;;;;;;;16.64;41.63;95159.00;10485720;28;20274;-29
2022/12/13 22:41:01;;;;;;;10.40;7.30;;;;;;;16.71;42.34;95160.53;10488427;28;20132;-29
2022/12/13 22:46:07;;;;;;;14.02;7.00;;;;;;;16.80;42.02;95163.75;10509310;28;20059;-29
2022/12/13 22:51:11;;;;;;;11.38;7.57;;;;;;;16.85;42.96;95173.75;10479456;28;20075;-27
2022/12/13 22:56:14;;;;;;;13.90;7.13;;;;;;;16.85;42.68;95176.28;10471562;28;20109;-29
2022/12/13 23:01:20;;;;;;;9.73;5.38;;;;;;;16.81;42.13;95169.63;10486656;28;20021;-30
2022/12/13 23:06:22;;;;;;;9.20;5.95;;;;;;;16.79;41.89;95176.41;10475276;28;20043;-28
2022/12/13 23:16:43;;;;;;;13.32;5.47;;;;;;;16.75;41.25;95164.69;10479973;28;20032;-28
2022/12/13 23:21:43;;;;;;;8.15;5.75;;;;;;;16.73;40.91;95152.94;10477933;28;20676;-28
2022/12/13 23:26:44;;;;;;;8.47;5.50;;;;;;;16.70;41.16;95150.47;10477531;28;20020;-29
2022/12/13 23:31:44;;;;;;;8.63;5.43;;;;;;;16.67;40.48;95137.00;10476163;28;20293;-29